createdAt,value
2022-09-25T00:00:03.013Z,28.50
2022-09-25T00:01:03.392Z,27.00
2022-09-25T00:02:02.801Z,27.70
2022-09-25T00:03:03.638Z,26.70
2022-09-25T00:04:03.608Z,27.60
2022-09-25T00:05:02.953Z,27.70
2022-09-25T00:06:02.961Z,27.50
2022-09-25T00:07:02.963Z,26.50
2022-09-25T00:08:04.212Z,28.50
2022-09-25T00:09:03.189Z,28.00
2022-09-25T00:10:03.593Z,27.50
2022-09-25T00:11:02.780Z,27.50
2022-09-25T00:12:02.799Z,28.50
2022-09-25T00:13:03.749Z,29.30
2022-09-25T00:14:03.252Z,28.20
2022-09-25T00:15:03.218Z,27.90
2022-09-25T00:16:03.023Z,28.80
2022-09-25T00:17:03.699Z,28.00
2022-09-25T00:18:03.440Z,28.10
2022-09-25T00:19:02.828Z,27.30
2022-09-25T00:20:03.449Z,29.10
2022-09-25T00:21:02.670Z,29.70
2022-09-25T00:22:02.881Z,28.50
2022-09-25T00:23:02.866Z,28.90
2022-09-25T00:24:02.957Z,29.20
2022-09-25T00:25:02.877Z,29.50
2022-09-25T00:26:02.710Z,28.40
2022-09-25T00:27:02.676Z,28.60
2022-09-25T00:28:02.686Z,28.70
2022-09-25T00:29:02.687Z,27.80
2022-09-25T00:30:02.910Z,29.40
2022-09-25T00:31:02.746Z,28.30
2022-09-25T00:32:02.716Z,28.40
2022-09-25T00:33:02.716Z,28.10
2022-09-25T00:34:02.816Z,28.00
2022-09-25T00:35:02.555Z,28.40
2022-09-25T00:36:02.557Z,27.20
2022-09-25T00:37:02.576Z,28.10
2022-09-25T00:38:02.574Z,28.80
2022-09-25T00:39:02.779Z,28.50
2022-09-25T00:40:02.799Z,27.80
2022-09-25T00:41:02.575Z,27.50
2022-09-25T00:42:02.575Z,28.60
2022-09-25T00:43:02.584Z,29.50
2022-09-25T00:44:02.861Z,27.60
2022-09-25T00:45:02.612Z,27.90
2022-09-25T00:46:02.703Z,27.10
2022-09-25T00:47:02.813Z,28.30
2022-09-25T00:48:02.814Z,28.30
2022-09-25T00:49:02.824Z,28.20
2022-09-25T00:50:02.464Z,27.30
2022-09-25T00:51:02.442Z,28.00
2022-09-25T00:52:02.455Z,27.60
2022-09-25T00:53:02.433Z,27.50
2022-09-25T00:54:02.495Z,27.40
2022-09-25T00:55:02.473Z,26.90
2022-09-25T00:56:02.419Z,27.60
2022-09-25T00:57:02.413Z,27.70
2022-09-25T00:58:02.423Z,26.70
2022-09-25T00:59:02.432Z,27.80
2022-09-25T01:00:02.503Z,27.10
2022-09-25T01:01:02.456Z,27.50
2022-09-25T01:02:02.525Z,27.60
2022-09-25T01:03:02.484Z,25.80
2022-09-25T01:04:02.621Z,26.90
2022-09-25T01:05:02.382Z,27.80
2022-09-25T01:06:02.352Z,27.80
2022-09-25T01:07:02.442Z,26.90
2022-09-25T01:08:02.586Z,28.60
2022-09-25T01:09:02.591Z,27.80
2022-09-25T01:10:02.347Z,27.40
2022-09-25T01:11:02.311Z,27.30
2022-09-25T01:12:02.569Z,26.80
2022-09-25T01:13:02.619Z,27.40
2022-09-25T01:14:02.325Z,27.50
2022-09-25T01:15:02.589Z,27.30
2022-09-25T01:16:02.410Z,28.70
2022-09-25T01:17:02.511Z,27.30
2022-09-25T01:18:02.689Z,28.10
2022-09-25T01:19:02.689Z,28.00
2022-09-25T01:20:02.450Z,27.10
2022-09-25T01:21:02.618Z,27.00
2022-09-25T01:22:02.739Z,27.30
2022-09-25T01:23:02.749Z,28.00
2022-09-25T01:24:02.818Z,27.90
2022-09-25T01:25:02.772Z,27.90
2022-09-25T01:26:02.778Z,27.30
2022-09-25T01:27:02.328Z,27.40
2022-09-25T01:28:02.268Z,28.10
2022-09-25T01:29:02.278Z,27.00
2022-09-25T01:30:02.310Z,28.60
2022-09-25T01:31:02.316Z,29.10
2022-09-25T01:32:02.178Z,26.40
2022-09-25T01:33:02.290Z,28.40
2022-09-25T01:34:02.517Z,28.10
2022-09-25T01:35:02.298Z,29.10
2022-09-25T01:36:02.739Z,28.10
2022-09-25T01:37:02.516Z,26.40
2022-09-25T01:38:02.139Z,28.30
2022-09-25T01:39:02.136Z,27.90
2022-09-25T01:40:02.153Z,28.80
2022-09-25T01:41:02.134Z,27.40
2022-09-25T01:42:02.146Z,29.30
2022-09-25T01:43:02.165Z,28.80
2022-09-25T01:44:02.205Z,28.60
2022-09-25T01:45:02.367Z,27.40
2022-09-25T01:46:02.502Z,28.30
2022-09-25T01:47:02.391Z,28.00
2022-09-25T01:48:02.076Z,27.40
2022-09-25T01:49:02.605Z,28.30
2022-09-25T01:50:02.064Z,27.10
2022-09-25T01:51:02.066Z,27.10
2022-09-25T01:52:02.058Z,27.40
2022-09-25T01:53:02.037Z,27.40
2022-09-25T01:54:02.037Z,27.30
2022-09-25T01:55:02.024Z,28.30
2022-09-25T01:56:02.063Z,27.40
2022-09-25T01:57:02.041Z,27.20
2022-09-25T01:58:02.045Z,27.70
2022-09-25T01:59:02.053Z,27.70
2022-09-25T02:00:02.069Z,27.30
2022-09-25T02:01:02.094Z,26.30
2022-09-25T02:02:02.048Z,26.50
2022-09-25T02:03:02.061Z,27.60
2022-09-25T02:04:02.083Z,26.70
2022-09-25T02:05:01.952Z,26.70
2022-09-25T02:06:02.102Z,26.50
2022-09-25T02:07:02.109Z,26.00
2022-09-25T02:08:01.931Z,25.80
2022-09-25T02:09:01.924Z,24.60
2022-09-25T02:10:01.923Z,25.50
2022-09-25T02:11:01.921Z,26.20
2022-09-25T02:12:02.140Z,25.90
2022-09-25T02:13:01.942Z,26.10
2022-09-25T02:14:02.155Z,24.20
2022-09-25T02:15:02.201Z,25.00
2022-09-25T02:16:02.214Z,24.70
2022-09-25T02:17:01.943Z,24.20
2022-09-25T02:18:01.900Z,23.20
2022-09-25T02:19:01.861Z,21.70
2022-09-25T02:20:01.884Z,21.90
2022-09-25T02:21:02.024Z,23.60
2022-09-25T02:22:02.010Z,21.90
2022-09-25T02:23:01.829Z,23.10
2022-09-25T02:24:01.827Z,23.20
2022-09-25T02:25:01.809Z,22.50
2022-09-25T02:26:01.829Z,21.20
2022-09-25T02:27:01.833Z,22.20
2022-09-25T02:28:01.829Z,22.20
2022-09-25T02:29:01.788Z,21.10
2022-09-25T02:30:01.790Z,20.50
2022-09-25T02:31:01.906Z,21.30
2022-09-25T02:32:01.908Z,22.00
2022-09-25T02:33:01.771Z,19.70
2022-09-25T02:34:01.772Z,20.50
2022-09-25T02:35:01.869Z,20.90
2022-09-25T02:36:01.809Z,19.10
2022-09-25T02:37:01.887Z,20.00
2022-09-25T02:38:01.907Z,20.30
2022-09-25T02:39:01.737Z,20.30
2022-09-25T02:40:01.907Z,19.30
2022-09-25T02:41:01.767Z,19.30
2022-09-25T02:42:01.779Z,19.10
2022-09-25T02:43:01.928Z,18.50
2022-09-25T02:44:01.728Z,17.40
2022-09-25T02:45:01.940Z,17.20
2022-09-25T02:46:01.969Z,17.50
2022-09-25T02:47:01.756Z,17.40
2022-09-25T02:48:01.957Z,17.40
2022-09-25T02:49:01.975Z,16.70
2022-09-25T02:50:02.026Z,16.60
2022-09-25T02:51:01.771Z,15.90
2022-09-25T02:52:01.645Z,16.10
2022-09-25T02:53:01.639Z,14.70
2022-09-25T02:54:01.645Z,14.70
2022-09-25T02:55:01.795Z,14.80
2022-09-25T02:56:01.805Z,15.40
2022-09-25T02:57:04.234Z,15.20
2022-09-25T02:58:01.845Z,14.60
2022-09-25T02:59:01.885Z,14.20
2022-09-25T03:00:01.608Z,14.60
2022-09-25T03:01:01.668Z,13.70
2022-09-25T03:02:01.953Z,13.60
2022-09-25T03:03:01.689Z,13.50
2022-09-25T03:04:01.574Z,13.50
2022-09-25T03:05:01.853Z,13.40
2022-09-25T03:06:01.566Z,13.50
2022-09-25T03:07:01.680Z,14.80
2022-09-25T03:08:01.514Z,13.80
2022-09-25T03:09:01.513Z,13.90
2022-09-25T03:10:01.511Z,13.90
2022-09-25T03:11:01.533Z,13.00
2022-09-25T03:12:01.523Z,12.90
2022-09-25T03:13:01.528Z,13.00
2022-09-25T03:14:01.582Z,13.40
2022-09-25T03:15:01.733Z,13.30
2022-09-25T03:16:01.875Z,13.00
2022-09-25T03:17:01.759Z,12.70
2022-09-25T03:18:01.761Z,12.90
2022-09-25T03:19:01.755Z,12.40
2022-09-25T03:20:01.971Z,13.60
2022-09-25T03:21:01.990Z,12.80
2022-09-25T03:22:01.982Z,12.90
2022-09-25T03:23:01.441Z,13.20
2022-09-25T03:24:01.439Z,13.00
2022-09-25T03:25:02.208Z,12.10
2022-09-25T03:26:01.403Z,12.10
2022-09-25T03:27:01.431Z,12.00
2022-09-25T03:28:01.397Z,12.40
2022-09-25T03:29:01.401Z,12.50
2022-09-25T03:30:01.410Z,12.90
2022-09-25T03:31:01.559Z,12.00
2022-09-25T03:32:01.422Z,12.20
2022-09-25T03:33:01.653Z,11.50
2022-09-25T03:34:01.638Z,12.30
2022-09-25T03:35:01.658Z,12.10
2022-09-25T03:36:01.729Z,11.70
2022-09-25T03:37:01.448Z,12.30
2022-09-25T03:38:01.876Z,12.60
2022-09-25T03:39:01.892Z,12.70
2022-09-25T03:40:01.691Z,11.70
2022-09-25T03:41:02.081Z,12.10
2022-09-25T03:42:01.978Z,12.70
2022-09-25T03:43:01.298Z,12.10
2022-09-25T03:44:01.578Z,11.90
2022-09-25T03:45:02.130Z,11.90
2022-09-25T03:46:01.546Z,12.00
2022-09-25T03:47:01.726Z,12.20
2022-09-25T03:48:01.317Z,11.20
2022-09-25T03:49:02.203Z,11.60
2022-09-25T03:50:01.539Z,12.00
2022-09-25T03:51:01.422Z,11.10
2022-09-25T03:52:01.626Z,10.90
2022-09-25T03:53:01.845Z,10.60
2022-09-25T03:54:02.236Z,10.60
2022-09-25T03:55:01.246Z,11.80
2022-09-25T03:56:01.605Z,11.50
2022-09-25T03:57:01.226Z,11.30
2022-09-25T03:58:01.257Z,11.10
2022-09-25T03:59:01.885Z,10.60
2022-09-25T04:00:01.826Z,10.10
2022-09-25T04:01:02.708Z,10.40
2022-09-25T04:02:01.446Z,10.40
2022-09-25T04:03:01.226Z,10.70
2022-09-25T04:04:01.157Z,10.30
2022-09-25T04:05:01.152Z,9.30
2022-09-25T04:06:01.148Z,9.90
2022-09-25T04:07:01.145Z,9.90
2022-09-25T04:08:01.134Z,10.00
2022-09-25T04:09:01.339Z,8.80
2022-09-25T04:10:01.256Z,8.70
2022-09-25T04:11:01.142Z,8.80
2022-09-25T04:12:01.474Z,8.70
2022-09-25T04:13:01.493Z,8.70
2022-09-25T04:14:01.072Z,8.80
2022-09-25T04:15:01.292Z,8.20
2022-09-25T04:16:01.781Z,8.30
2022-09-25T04:17:01.089Z,8.10
2022-09-25T04:18:05.802Z,8.50
2022-09-25T04:19:01.522Z,8.10
2022-09-25T04:20:01.849Z,8.10
2022-09-25T04:21:01.545Z,8.00
2022-09-25T04:22:01.853Z,7.50
2022-09-25T04:23:01.143Z,7.20
2022-09-25T04:24:01.237Z,7.40
2022-09-25T04:25:01.828Z,7.30
2022-09-25T04:26:01.980Z,7.40
2022-09-25T04:27:01.577Z,7.60
2022-09-25T04:28:01.781Z,7.10
2022-09-25T04:29:00.970Z,6.70
2022-09-25T04:30:01.848Z,6.50
2022-09-25T04:31:01.305Z,7.10
2022-09-25T04:32:01.058Z,6.80
2022-09-25T04:33:00.980Z,6.70
2022-09-25T04:34:01.628Z,6.50
2022-09-25T04:35:00.940Z,6.60
2022-09-25T04:36:01.129Z,6.70
2022-09-25T04:37:01.760Z,6.30
2022-09-25T04:38:01.121Z,6.20
2022-09-25T04:39:01.447Z,6.20
2022-09-25T04:40:01.660Z,6.10
2022-09-25T04:41:00.948Z,6.00
2022-09-25T04:42:01.879Z,5.70
2022-09-25T04:43:00.907Z,5.50
2022-09-25T04:44:00.868Z,6.10
2022-09-25T04:45:00.877Z,5.80
2022-09-25T04:46:00.998Z,5.80
2022-09-25T04:47:00.856Z,5.40
2022-09-25T04:48:00.986Z,6.10
2022-09-25T04:49:00.907Z,5.50
2022-09-25T04:50:00.829Z,5.40
2022-09-25T04:51:00.944Z,5.70
2022-09-25T04:52:00.918Z,5.70
2022-09-25T04:53:00.826Z,5.80
2022-09-25T04:54:00.826Z,5.80
2022-09-25T04:55:00.848Z,5.90
2022-09-25T04:56:00.845Z,5.60
2022-09-25T04:57:00.854Z,6.00
2022-09-25T04:58:00.978Z,5.90
2022-09-25T04:59:00.975Z,5.70
2022-09-25T05:00:00.985Z,5.80
2022-09-25T05:01:01.120Z,5.50
2022-09-25T05:02:01.255Z,6.00
2022-09-25T05:03:01.206Z,5.50
2022-09-25T05:04:04.978Z,5.80
2022-09-25T05:05:00.724Z,5.80
2022-09-25T05:06:00.715Z,6.00
2022-09-25T05:07:00.712Z,5.60
2022-09-25T05:08:00.714Z,5.70
2022-09-25T05:09:01.142Z,5.50
2022-09-25T05:10:00.688Z,5.30
2022-09-25T05:11:00.686Z,5.60
2022-09-25T05:12:00.745Z,5.70
2022-09-25T05:13:00.753Z,5.40
2022-09-25T05:14:00.663Z,5.30
2022-09-25T05:15:00.665Z,5.40
2022-09-25T05:16:00.718Z,5.30
2022-09-25T05:17:00.673Z,5.20
2022-09-25T05:18:00.683Z,5.50
2022-09-25T05:19:00.641Z,5.10
2022-09-25T05:20:00.622Z,5.70
2022-09-25T05:21:00.622Z,5.30
2022-09-25T05:22:00.702Z,5.50
2022-09-25T05:23:00.621Z,5.40
2022-09-25T05:24:00.611Z,5.50
2022-09-25T05:25:00.800Z,5.20
2022-09-25T05:26:00.813Z,5.20
2022-09-25T05:27:00.835Z,5.10
2022-09-25T05:28:00.844Z,5.20
2022-09-25T05:29:00.568Z,5.30
2022-09-25T05:30:00.660Z,5.30
2022-09-25T05:31:00.950Z,5.10
2022-09-25T05:32:00.564Z,5.50
2022-09-25T05:33:00.589Z,5.20
2022-09-25T05:34:00.572Z,5.20
2022-09-25T05:35:00.585Z,5.00
2022-09-25T05:36:00.928Z,5.50
2022-09-25T05:37:00.950Z,5.20
2022-09-25T05:38:00.960Z,5.00
2022-09-25T05:39:00.968Z,4.80
2022-09-25T05:40:00.980Z,5.20
2022-09-25T05:41:00.575Z,4.90
2022-09-25T05:42:00.759Z,4.70
2022-09-25T05:43:01.049Z,5.20
2022-09-25T05:44:00.759Z,4.60
2022-09-25T05:45:06.583Z,4.90
2022-09-25T05:46:01.118Z,4.50
2022-09-25T05:47:00.465Z,5.10
2022-09-25T05:48:00.467Z,4.70
2022-09-25T05:49:00.477Z,4.80
2022-09-25T05:50:00.599Z,4.60
2022-09-25T05:51:00.619Z,4.60
2022-09-25T05:52:00.711Z,4.40
2022-09-25T05:53:00.714Z,4.60
2022-09-25T05:54:00.824Z,4.40
2022-09-25T05:55:00.449Z,5.20
2022-09-25T05:56:00.514Z,4.50
2022-09-25T05:57:00.377Z,4.70
2022-09-25T05:58:00.445Z,4.20
2022-09-25T05:59:00.564Z,4.40
2022-09-25T06:00:00.463Z,4.10
2022-09-25T06:01:00.665Z,4.00
2022-09-25T06:02:00.704Z,4.00
2022-09-25T06:03:00.508Z,4.20
2022-09-25T06:04:00.347Z,4.20
2022-09-25T06:05:00.323Z,4.60
2022-09-25T06:06:00.325Z,4.10
2022-09-25T06:07:00.313Z,4.20
2022-09-25T06:08:00.303Z,4.60
2022-09-25T06:09:00.383Z,4.20
2022-09-25T06:10:00.273Z,4.40
2022-09-25T06:11:00.324Z,4.00
2022-09-25T06:12:00.275Z,4.30
2022-09-25T06:13:00.260Z,4.00
2022-09-25T06:14:00.272Z,3.90
2022-09-25T06:15:00.252Z,4.00
2022-09-25T06:16:00.301Z,3.70
2022-09-25T06:17:00.253Z,3.60
2022-09-25T06:18:00.233Z,3.60
2022-09-25T06:19:00.393Z,3.80
2022-09-25T06:20:00.222Z,3.90
2022-09-25T06:21:00.210Z,3.90
2022-09-25T06:22:00.201Z,3.90
2022-09-25T06:23:00.201Z,4.10
2022-09-25T06:24:00.411Z,4.00
2022-09-25T06:25:00.196Z,4.20
2022-09-25T06:26:00.182Z,4.40
2022-09-25T06:27:00.234Z,4.30
2022-09-25T06:28:00.181Z,4.00
2022-09-25T06:29:03.152Z,4.40
2022-09-25T06:30:00.529Z,3.80
2022-09-25T06:31:00.595Z,4.00
2022-09-25T06:32:00.548Z,4.00
2022-09-25T06:33:00.141Z,4.00
2022-09-25T06:34:00.148Z,3.90
2022-09-25T06:35:00.121Z,3.70
2022-09-25T06:36:00.103Z,3.80
2022-09-25T06:37:00.108Z,4.00
2022-09-25T06:38:00.089Z,3.90
2022-09-25T06:39:00.099Z,3.80
2022-09-25T06:40:00.126Z,4.20
2022-09-25T06:41:00.714Z,3.80
2022-09-25T06:42:00.067Z,3.90
2022-09-25T06:43:00.058Z,4.20
2022-09-25T06:44:00.078Z,3.90
2022-09-25T06:45:00.046Z,4.00
2022-09-25T06:46:00.140Z,4.20
2022-09-25T06:47:00.036Z,3.80
2022-09-25T06:48:00.039Z,3.90
2022-09-25T06:49:00.037Z,3.90
2022-09-25T06:50:00.008Z,4.00
2022-09-25T06:51:00.006Z,3.80
2022-09-25T06:51:59.998Z,3.40
2022-09-25T06:52:59.998Z,3.80
2022-09-25T06:54:00.006Z,3.70
2022-09-25T06:54:59.985Z,3.70
2022-09-25T06:56:00.355Z,3.40
2022-09-25T06:56:59.983Z,3.60
2022-09-25T06:57:59.955Z,3.60
2022-09-25T06:58:59.976Z,4.00
2022-09-25T06:59:59.938Z,3.80
2022-09-25T07:00:59.937Z,3.80
2022-09-25T07:01:59.992Z,4.00
2022-09-25T07:03:00.018Z,4.20
2022-09-25T07:03:59.916Z,4.20
2022-09-25T07:04:59.986Z,4.40
2022-09-25T07:06:00.353Z,4.00
2022-09-25T07:07:00.371Z,3.80
2022-09-25T07:08:00.365Z,4.30
2022-09-25T07:08:59.883Z,3.90
2022-09-25T07:09:59.913Z,3.80
2022-09-25T07:10:59.872Z,4.00
2022-09-25T07:11:59.921Z,3.60
2022-09-25T07:12:59.860Z,4.00
2022-09-25T07:13:59.844Z,3.70
2022-09-25T07:14:59.863Z,3.80
2022-09-25T07:15:59.966Z,3.90
2022-09-25T07:17:00.165Z,3.90
2022-09-25T07:17:59.822Z,3.70
2022-09-25T07:18:59.818Z,3.80
2022-09-25T07:19:59.822Z,3.60
2022-09-25T07:20:59.802Z,3.90
2022-09-25T07:21:59.801Z,3.80
2022-09-25T07:22:59.793Z,4.00
2022-09-25T07:23:59.781Z,3.70
2022-09-25T07:25:00.629Z,3.80
2022-09-25T07:25:59.771Z,3.70
2022-09-25T07:26:59.820Z,3.70
2022-09-25T07:28:00.634Z,3.90
2022-09-25T07:29:00.650Z,3.70
2022-09-25T07:29:59.770Z,3.90
2022-09-25T07:30:59.771Z,3.80
2022-09-25T07:31:59.791Z,3.50
2022-09-25T07:33:00.360Z,3.90
2022-09-25T07:33:59.728Z,3.60
2022-09-25T07:34:59.730Z,3.80
2022-09-25T07:35:59.699Z,3.80
2022-09-25T07:36:59.688Z,3.70
2022-09-25T07:37:59.696Z,3.60
2022-09-25T07:38:59.696Z,3.40
2022-09-25T07:39:59.691Z,3.60
2022-09-25T07:40:59.719Z,3.50
2022-09-25T07:42:00.297Z,3.50
2022-09-25T07:43:00.346Z,3.60
2022-09-25T07:45:00.408Z,4.00
2022-09-25T07:46:00.497Z,3.60
2022-09-25T07:46:59.646Z,3.50
2022-09-25T07:47:59.619Z,3.70
2022-09-25T07:48:59.607Z,4.00
2022-09-25T07:49:59.624Z,3.60
2022-09-25T07:50:59.607Z,3.90
2022-09-25T07:51:59.840Z,3.70
2022-09-25T07:52:59.589Z,3.70
2022-09-25T07:53:59.587Z,3.50
2022-09-25T07:54:59.613Z,3.70
2022-09-25T07:56:05.089Z,3.80
2022-09-25T07:56:59.563Z,3.60
2022-09-25T07:58:00.237Z,3.60
2022-09-25T07:59:00.258Z,3.70
2022-09-25T07:59:59.564Z,3.60
2022-09-25T08:00:59.536Z,3.80
2022-09-25T08:01:59.880Z,3.60
2022-09-25T08:02:59.677Z,3.30
2022-09-25T08:03:59.534Z,3.70
2022-09-25T08:04:59.515Z,3.40
2022-09-25T08:05:59.504Z,3.80
2022-09-25T08:07:00.343Z,3.50
2022-09-25T08:07:59.484Z,3.70
2022-09-25T08:08:59.474Z,3.50
2022-09-25T08:09:59.487Z,3.60
2022-09-25T08:10:59.460Z,3.70
2022-09-25T08:11:59.455Z,3.60
2022-09-25T08:12:59.453Z,3.80
2022-09-25T08:13:59.451Z,3.40
2022-09-25T08:14:59.466Z,3.50
2022-09-25T08:15:59.548Z,4.10
2022-09-25T08:16:59.555Z,3.80
2022-09-25T08:17:59.430Z,3.70
2022-09-25T08:18:59.803Z,4.50
2022-09-25T08:19:59.791Z,3.90
2022-09-25T08:20:59.581Z,4.10
2022-09-25T08:21:59.420Z,4.00
2022-09-25T08:22:59.401Z,4.10
2022-09-25T08:23:59.386Z,3.40
2022-09-25T08:24:59.423Z,3.70
2022-09-25T08:25:59.365Z,3.60
2022-09-25T08:26:59.350Z,3.50
2022-09-25T08:27:59.349Z,4.00
2022-09-25T08:28:59.347Z,3.90
2022-09-25T08:29:59.659Z,3.50
2022-09-25T08:30:59.764Z,3.40
2022-09-25T08:31:59.427Z,3.60
2022-09-25T08:32:59.312Z,3.20
2022-09-25T08:34:14.971Z,3.40
2022-09-25T08:34:59.919Z,3.30
2022-09-25T08:35:59.309Z,3.40
2022-09-25T08:36:59.277Z,3.60
2022-09-25T08:37:59.278Z,3.60
2022-09-25T08:38:59.268Z,3.50
2022-09-25T08:39:59.269Z,3.60
2022-09-25T08:40:59.798Z,3.70
2022-09-25T08:41:59.259Z,3.90
2022-09-25T08:42:59.251Z,3.80
2022-09-25T08:43:59.238Z,3.80
2022-09-25T08:45:20.052Z,4.00
2022-09-25T08:46:00.105Z,3.30
2022-09-25T08:46:59.257Z,3.80
2022-09-25T08:47:59.207Z,4.80
2022-09-25T08:48:59.205Z,4.10
2022-09-25T08:49:59.196Z,3.60
2022-09-25T08:50:59.195Z,3.80
2022-09-25T08:51:59.186Z,3.90
2022-09-25T08:52:59.185Z,3.90
2022-09-25T08:53:59.184Z,4.00
2022-09-25T08:54:59.176Z,4.20
2022-09-25T08:55:59.227Z,3.50
2022-09-25T08:56:59.202Z,3.80
2022-09-25T08:57:59.154Z,3.60
2022-09-25T08:58:59.137Z,4.00
2022-09-25T09:00:02.180Z,3.60
2022-09-25T09:00:59.160Z,3.80
2022-09-25T09:01:59.128Z,3.40
2022-09-25T09:02:59.170Z,3.80
2022-09-25T09:03:59.104Z,3.90
2022-09-25T09:04:59.091Z,3.50
2022-09-25T09:05:59.105Z,3.90
2022-09-25T09:07:25.098Z,4.00
2022-09-25T09:07:59.075Z,3.80
2022-09-25T09:08:59.073Z,3.60
2022-09-25T09:09:59.065Z,3.40
2022-09-25T09:10:59.063Z,3.60
2022-09-25T09:11:59.049Z,3.50
2022-09-25T09:12:59.044Z,3.90
2022-09-25T09:13:59.042Z,3.60
2022-09-25T09:14:59.027Z,3.40
2022-09-25T09:15:59.095Z,3.80
2022-09-25T09:16:59.028Z,3.60
2022-09-25T09:17:59.355Z,3.20
2022-09-25T09:18:59.008Z,3.40
2022-09-25T09:19:58.994Z,3.10
2022-09-25T09:20:59.007Z,3.20
2022-09-25T09:21:58.983Z,3.00
2022-09-25T09:22:59.011Z,3.10
2022-09-25T09:23:58.992Z,2.60
2022-09-25T09:24:58.972Z,2.40
2022-09-25T09:25:58.979Z,2.50
2022-09-25T09:26:58.962Z,2.70
2022-09-25T09:27:58.958Z,2.90
2022-09-25T09:28:58.931Z,2.70
2022-09-25T09:30:04.498Z,2.90
2022-09-25T09:30:58.991Z,2.40
2022-09-25T09:31:58.951Z,2.60
2022-09-25T09:32:58.913Z,2.30
2022-09-25T09:33:59.041Z,2.20
2022-09-25T09:35:06.259Z,2.20
2022-09-25T09:35:58.901Z,2.10
2022-09-25T09:36:58.880Z,2.30
2022-09-25T09:37:58.870Z,2.30
2022-09-25T09:38:58.861Z,2.00
2022-09-25T09:39:58.858Z,2.40
2022-09-25T09:40:58.859Z,2.30
2022-09-25T09:41:58.841Z,2.30
2022-09-25T09:42:59.093Z,2.20
2022-09-25T09:43:58.830Z,2.80
2022-09-25T09:44:58.830Z,2.10
2022-09-25T09:45:58.901Z,2.10
2022-09-25T09:47:00.282Z,2.10
2022-09-25T09:47:59.149Z,2.00
2022-09-25T09:48:58.799Z,2.20
2022-09-25T09:49:58.789Z,2.30
2022-09-25T09:50:58.790Z,1.90
2022-09-25T09:51:58.769Z,2.00
2022-09-25T09:52:58.766Z,2.20
2022-09-25T09:53:58.759Z,1.90
2022-09-25T09:54:58.748Z,1.80
2022-09-25T09:55:58.768Z,1.90
2022-09-25T09:56:58.736Z,2.00
2022-09-25T09:57:58.736Z,2.00
2022-09-25T09:58:58.729Z,1.80
2022-09-25T10:00:04.390Z,2.10
2022-09-25T10:01:06.950Z,2.00
2022-09-25T10:01:59.445Z,1.80
2022-09-25T10:02:58.750Z,2.10
2022-09-25T10:03:59.376Z,1.90
2022-09-25T10:04:58.867Z,2.00
2022-09-25T10:05:58.868Z,1.70
2022-09-25T10:06:58.915Z,1.80
2022-09-25T10:07:58.889Z,1.90
2022-09-25T10:08:58.658Z,1.90
2022-09-25T10:09:58.696Z,1.70
2022-09-25T10:10:59.116Z,1.70
2022-09-25T10:11:58.699Z,1.70
2022-09-25T10:13:01.816Z,1.70
2022-09-25T10:13:58.706Z,1.70
2022-09-25T10:14:58.719Z,2.10
2022-09-25T10:15:58.758Z,1.90
2022-09-25T10:16:58.695Z,1.80
2022-09-25T10:17:58.956Z,1.80
2022-09-25T10:18:58.958Z,2.10
2022-09-25T10:19:58.576Z,1.90
2022-09-25T10:20:58.955Z,2.00
2022-09-25T10:21:58.632Z,1.50
2022-09-25T10:22:58.566Z,1.80
2022-09-25T10:23:58.565Z,1.90
2022-09-25T10:24:58.616Z,1.80
2022-09-25T10:25:58.555Z,1.50
2022-09-25T10:26:58.536Z,1.60
2022-09-25T10:27:58.526Z,1.90
2022-09-25T10:28:58.515Z,1.70
2022-09-25T10:29:58.516Z,1.70
2022-09-25T10:30:58.593Z,1.80
2022-09-25T10:31:58.614Z,1.70
2022-09-25T10:32:58.529Z,1.50
2022-09-25T10:33:58.492Z,1.90
2022-09-25T10:34:58.474Z,1.70
2022-09-25T10:35:58.855Z,1.80
2022-09-25T10:36:58.475Z,1.60
2022-09-25T10:37:58.872Z,1.80
2022-09-25T10:39:39.165Z,1.70
2022-09-25T10:39:58.448Z,1.40
2022-09-25T10:40:58.489Z,1.60
2022-09-25T10:41:58.433Z,1.30
2022-09-25T10:42:58.449Z,1.70
2022-09-25T10:43:58.413Z,1.50
2022-09-25T10:44:58.412Z,1.60
2022-09-25T10:45:58.503Z,1.70
2022-09-25T10:46:58.516Z,1.80
2022-09-25T10:47:58.932Z,1.50
2022-09-25T10:48:58.933Z,1.60
2022-09-25T10:49:58.385Z,1.50
2022-09-25T10:50:58.384Z,1.50
2022-09-25T10:51:58.364Z,1.70
2022-09-25T10:52:58.553Z,2.00
2022-09-25T10:53:58.582Z,2.00
2022-09-25T10:54:58.352Z,1.80
2022-09-25T10:55:58.396Z,1.70
2022-09-25T10:56:58.359Z,1.70
2022-09-25T10:57:58.405Z,2.00
2022-09-25T10:58:58.327Z,1.90
2022-09-25T10:59:58.313Z,1.90
2022-09-25T11:00:58.368Z,1.60
2022-09-25T11:01:58.463Z,1.50
2022-09-25T11:02:58.362Z,1.60
2022-09-25T11:03:58.281Z,1.30
2022-09-25T11:04:58.271Z,1.40
2022-09-25T11:05:58.441Z,1.30
2022-09-25T11:06:58.276Z,1.30
2022-09-25T11:07:58.442Z,1.40
2022-09-25T11:08:58.451Z,1.50
2022-09-25T11:10:00.337Z,1.30
2022-09-25T11:10:58.462Z,1.10
2022-09-25T11:11:58.233Z,1.40
2022-09-25T11:12:58.220Z,1.30
2022-09-25T11:13:58.252Z,1.40
2022-09-25T11:14:58.200Z,1.20
2022-09-25T11:15:58.700Z,1.20
2022-09-25T11:16:58.283Z,1.40
2022-09-25T11:17:58.191Z,1.20
2022-09-25T11:19:02.459Z,1.30
2022-09-25T11:19:58.170Z,2.30
2022-09-25T11:20:58.179Z,1.90
2022-09-25T11:21:58.743Z,1.40
2022-09-25T11:22:58.160Z,1.70
2022-09-25T11:23:58.149Z,1.90
2022-09-25T11:25:01.360Z,1.70
2022-09-25T11:25:58.158Z,1.60
2022-09-25T11:26:58.152Z,1.70
2022-09-25T11:27:58.118Z,1.60
2022-09-25T11:28:58.119Z,1.40
2022-09-25T11:29:58.378Z,1.60
2022-09-25T11:30:58.139Z,1.30
2022-09-25T11:31:58.188Z,1.40
2022-09-25T11:32:58.079Z,1.40
2022-09-25T11:33:58.086Z,1.30
2022-09-25T11:34:58.621Z,1.50
2022-09-25T11:35:58.628Z,1.40
2022-09-25T11:36:58.637Z,1.30
2022-09-25T11:37:58.238Z,1.50
2022-09-25T11:38:58.877Z,1.40
2022-09-25T11:39:58.892Z,1.70
2022-09-25T11:40:58.912Z,1.70
2022-09-25T11:41:58.887Z,1.50
2022-09-25T11:42:58.618Z,1.40
2022-09-25T11:43:58.849Z,1.30
2022-09-25T11:44:58.925Z,1.60
2022-09-25T11:45:58.960Z,1.60
2022-09-25T11:46:58.696Z,1.60
2022-09-25T11:47:58.438Z,1.20
2022-09-25T11:48:58.877Z,1.50
2022-09-25T11:49:58.107Z,1.30
2022-09-25T11:50:58.119Z,1.40
2022-09-25T11:51:58.127Z,1.30
2022-09-25T11:52:58.127Z,1.40
2022-09-25T11:54:12.379Z,1.20
2022-09-25T11:54:58.349Z,1.70
2022-09-25T11:55:58.354Z,1.40
2022-09-25T11:56:58.358Z,1.20
2022-09-25T11:57:57.986Z,1.40
2022-09-25T11:58:58.398Z,1.50
2022-09-25T11:59:58.748Z,1.60
2022-09-25T12:00:57.966Z,1.50
2022-09-25T12:01:57.976Z,1.30
2022-09-25T12:02:57.984Z,1.40
2022-09-25T12:03:57.878Z,1.40
2022-09-25T12:04:58.026Z,1.30
2022-09-25T12:05:58.205Z,1.50
2022-09-25T12:06:57.856Z,1.30
2022-09-25T12:07:58.234Z,1.10
2022-09-25T12:08:58.226Z,1.30
2022-09-25T12:09:58.274Z,1.50
2022-09-25T12:10:58.033Z,1.30
2022-09-25T12:11:58.446Z,1.20
2022-09-25T12:12:58.457Z,1.20
2022-09-25T12:13:58.465Z,1.40
2022-09-25T12:14:57.854Z,1.30
2022-09-25T12:15:58.678Z,1.30
2022-09-25T12:16:58.685Z,1.20
2022-09-25T12:17:58.645Z,1.10
2022-09-25T12:18:58.695Z,1.10
2022-09-25T12:19:58.735Z,1.00
2022-09-25T12:20:58.616Z,1.10
2022-09-25T12:21:58.775Z,1.20
2022-09-25T12:22:58.314Z,1.10
2022-09-25T12:23:58.583Z,1.10
2022-09-25T12:24:57.736Z,1.30
2022-09-25T12:25:57.735Z,1.40
2022-09-25T12:26:57.744Z,1.10
2022-09-25T12:27:57.717Z,1.10
2022-09-25T12:28:57.753Z,1.10
2022-09-25T12:29:57.763Z,1.10
2022-09-25T12:30:58.971Z,1.00
2022-09-25T12:31:57.784Z,1.30
2022-09-25T12:32:57.792Z,1.10
2022-09-25T12:33:57.802Z,1.20
2022-09-25T12:34:57.993Z,1.30
2022-09-25T12:35:57.992Z,1.10
2022-09-25T12:36:58.003Z,1.20
2022-09-25T12:37:57.634Z,1.10
2022-09-25T12:38:57.633Z,1.40
2022-09-25T12:39:57.633Z,1.40
2022-09-25T12:40:57.693Z,1.40
2022-09-25T12:41:57.633Z,1.30
2022-09-25T12:42:57.630Z,1.20
2022-09-25T12:43:57.615Z,1.50
2022-09-25T12:44:57.871Z,1.60
2022-09-25T12:45:57.920Z,1.30
2022-09-25T12:46:57.626Z,1.50
2022-09-25T12:47:57.581Z,1.10
2022-09-25T12:48:57.561Z,1.40
2022-09-25T12:49:57.562Z,1.20
2022-09-25T12:51:01.466Z,1.10
2022-09-25T12:51:57.541Z,1.10
2022-09-25T12:52:57.536Z,1.30
2022-09-25T12:53:57.522Z,1.60
2022-09-25T12:54:57.524Z,1.20
2022-09-25T12:55:58.345Z,1.00
2022-09-25T12:56:57.520Z,0.90
2022-09-25T12:57:57.504Z,1.30
2022-09-25T12:58:57.518Z,0.90
2022-09-25T12:59:57.492Z,1.20
2022-09-25T13:00:58.387Z,1.00
2022-09-25T13:01:57.699Z,0.90
2022-09-25T13:02:58.160Z,1.00
2022-09-25T13:03:57.461Z,0.90
2022-09-25T13:04:57.459Z,0.80
2022-09-25T13:05:57.453Z,1.20
2022-09-25T13:06:57.448Z,1.00
2022-09-25T13:07:57.430Z,1.20
2022-09-25T13:08:57.429Z,1.20
2022-09-25T13:09:57.417Z,1.20
2022-09-25T13:10:57.448Z,1.40